Domov               UVHVVR             MKGP            O straneh              
ZDRAVSTVENO VARSTVO RASTLIN
  MREŽA AGROMET. POSTAJ
 ► PROGNOSTIČNA OBVESTILA
AGROMETEOROLOŠKI PODATKI -
ARSO
OBVLADOVANJE TVEGANJ ZARADI
NEUGODNIH VREMENSKIH RAZMER
  ► NARAVNE NESREČE
  ► SUŠA/MOČA
  ► NAMAKANJE
  ► ŽLED (gozdarstvo)
KARTOGRAFSKI PRIKAZI
SPLETNE POVEZAVE
PROJEKTI IN PUBLIKACIJE

AGROMETEOROLOŠKA MREŽA: VREMENSKE POSTAJE IN FENOLOŠKA OPAZOVANJA

Pregled podatkov za lokacijo Ojstriška vas, meteorološka postaja 24361

Pregled senzorjev na lokaciji

ID Ime Zadnja
vrednost
Datum
zadnje
spremembe
Tip
senzorja
2036 Relativna vlaga 2 m (% RH) 99,93 % RH 24.8.2017 04:30 Generic 0 - 100 %
2037 Temperatura 2 m ( °C) 10,26 °C 24.8.2017 04:30 Generic -40 - +60 °C
2038 Omočenost lista (U) 10 U 24.8.2017 04:30 A730WET
4058 Padavine 0.2 mm (mm) 0 mm 24.8.2017 04:30 Generic 0.2 mm

Pregled podatkov zadnjih 24 ur

Zap.
št.
Datum in čas Ojstriška vas
Omočenost
lista
Padavine
0.2
mm
Relativna
vlaga
2
m
Temperatura
2
m
0 24.8.2017 03:30 10 0 99,93 10,26
1 24.8.2017 03:00 10 0 99,9 10,18
2 24.8.2017 02:30 10 0 99,76 10,21
3 24.8.2017 02:00 10 0 99,73 10,74
4 24.8.2017 01:30 10 0 99,63 11,06
5 24.8.2017 01:00 10 0 99,51 11,23
6 24.8.2017 00:30 10 0 99,29 11,58
7 24.8.2017 00:00 10 0 99,07 11,62
8 23.8.2017 23:30 10 0 98,61 11,87
9 23.8.2017 23:00 10 0 97,92 12,11
10 23.8.2017 22:30 10 0 97,31 12,48
11 23.8.2017 22:00 10 0 96,36 12,84
12 23.8.2017 21:30 10 0 94,36 13,5
13 23.8.2017 21:00 10 0 94,51 14,02
14 23.8.2017 20:30 8 0 94,63 14,21
15 23.8.2017 20:00 3 0 93,33 15,02
16 23.8.2017 19:30 0 0 90,31 15,92
17 23.8.2017 19:00 0 0 84,15 17,73
18 23.8.2017 18:30 0 0 66,25 21,95
19 23.8.2017 18:00 0 0 57,09 23,35
20 23.8.2017 17:30 0 0 54,77 23,98
21 23.8.2017 17:00 0 0 52,33 24,62
22 23.8.2017 16:30 0 0 51,84 24,74
23 23.8.2017 16:00 0 0 51,67 24,91
24 23.8.2017 15:30 0 0 51,28 25,18
25 23.8.2017 15:00 0 0 51,28 24,79
26 23.8.2017 14:30 0 0 51,43 24,84
27 23.8.2017 14:00 0 0 53,33 23,59
28 23.8.2017 13:30 0 0 54,82 23,22
29 23.8.2017 13:00 0 0 55,24 22,61
30 23.8.2017 12:30 0 0 56,21 22,27
31 23.8.2017 12:00 0 0 55,82 21,98
32 23.8.2017 11:30 0 0 56,09 21,29
33 23.8.2017 11:00 0 0 57,51 20,76
34 23.8.2017 10:30 0 0 56,53 20,83
35 23.8.2017 10:00 0 0 60,85 20,07
36 23.8.2017 09:30 0 0 62,1 19,83
37 23.8.2017 09:00 0 0 66,98 18,66
38 23.8.2017 08:30 6 0 74,43 17,14
39 23.8.2017 08:00 10 0 74,82 16,04
40 23.8.2017 07:30 10 0 86,84 13,43
41 23.8.2017 07:00 10 0 94,41 11,84
42 23.8.2017 06:30 10 0 99,83 10,01
43 23.8.2017 06:00 10 0 99,93 8,16
44 23.8.2017 05:30 10 0 99,85 7,64
© 2011 Ministrstvo za kmetijstvo, gozdarstvo in prehrano. Vse pravice pridržane.